Details From EGPF - Glasgow
To LFOT - Tours Val De Loire Ab
Flight Number -
Tags Generated
Created
Modified
Stats Distance 543 nm / 1,005 km
Max Altitude 0 ft / 0 m
Waypoints 4
Social Downloads 2
Likes 0
Share VATSIM

Download

Looking for another format? Having issues loading an existing format? Contact us
Advertisement - Login to hide

Notes

Generated

Route

EGPF BZN01 DEVRO LFOT

ID Type Via Altitude Latitude Longitude Leg Dist Tot Dist Heading (true) Name
O EGPF APT - 0 ft / 0 m 55.87222˚ -4.44472˚ - 0 nm - -
BZN01 FIX - 0 ft / 0 m 51.74115˚ -1.62784˚ 267 nm 267 nm 157° / 159° -
DEVRO FIX - 0 ft / 0 m 47.49556˚ 0.73861˚ 271 nm 538 nm 159° / 161° -
O LFOT APT - 0 ft / 0 m 47.42722˚ 0.72658˚ 4 nm 542 nm 187° / 187° Tours Val De Loire AB

Altitude Profile

Advertisement - Login to hide

Weather


0- 5 10 15 20 25 30 35+ Temperature / ° C

Clouds and Precipitation
Forecast for 2017-12-18 06:00 UTC. Updated 40 minutes ago

Ground ~20,000 ft ~40,000 ft Winds

EGPF

Details ICAO EGPF (GLA)
Name Glasgow
Region United Kingdom
Timezone Europe/London (UTC+0.0)
Stats Elevation 26 ft / 8 m (AMSL)
Location 55.871728° -4.433648°
Runways 1
Magnetic Variation 2.730° W

METAR

EGPF 180150Z AUTO VRB03KT 9999 NCD 00/M01 Q1023

Decode

TAF

TAF EGPF 172301Z 1800/1824 22008KT 9999 SCT030 PROB30 1800/1810 4000 BR PROB30 TEMPO 1810/1824 5000 BR BKN004

Decode

Departure Runways

ID Width Length Bearing (true) Bearing (mag) Surface Threshold Offset Overrun Length
05 151 ft / 46 m 8,721 ft / 2,658 m 46.34° 49.07° Asphalt 0 ft / 0 m 499 ft / 152 m
23 151 ft / 46 m 8,721 ft / 2,658 m 226.37° 229.10° Asphalt 1,004 ft / 306 m 0 ft / 0 m

LFOT

Details ICAO LFOT (TUF)
Name Tours Val De Loire AB
Region France
Timezone Europe/Paris (UTC+1.0)
Stats Elevation 356 ft / 109 m (AMSL)
Location 47.432974° 0.728402°
Runways 2
Magnetic Variation 0.193° E

METAR

LFOT 180200Z AUTO 25010KT 9999 DZ OVC008/// ///TCU 08/07 Q1025 BECMG 3000 -DZRA OVC002

Decode

TAF

TAF LFOT 172300Z 1800/1824 24010KT 9999 BKN016 BECMG 1800/1802 3000 -DZRA OVC002 BECMG 1806/1809 32012KT 6000 NSW BKN004 BECMG 1809/1812 01012KT 9999 BKN020 BECMG 1814/1816 SCT025

Decode

Destination Runways

ID Width Length Bearing (true) Bearing (mag) Surface Threshold Offset Overrun Length
02 148 ft / 45 m 7,891 ft / 2,405 m 15.22° 15.03° Concrete 0 ft / 0 m 968 ft / 295 m
02R 197 ft / 60 m 4,925 ft / 1,501 m 15.24° 15.05° Grass 0 ft / 0 m 0 ft / 0 m
20 148 ft / 45 m 7,891 ft / 2,405 m 195.22° 195.03° Concrete 0 ft / 0 m 393 ft / 120 m
20L 197 ft / 60 m 4,925 ft / 1,501 m 195.24° 195.05° Grass 0 ft / 0 m 0 ft / 0 m

Approach Navaids

Runway Type Ident Frequency Range Bearing (true) Bearing (mag) Slope Elevation
20 Localiser TS 110.55 MHz 18 nm / 33 km 195.21° 195.02° - 341 ft / 104 m (AMSL)
20 Glidescope TS 110.55 MHz 10 nm / 19 km 195.22° 195.03° 3.00° 341 ft / 104 m (AMSL)
20 DME TS 110.55 MHz 18 nm / 33 km - - - 408 ft / 124 m (AMSL)